createdAt,value
2018-12-04T00:00:41.883Z,89.63
2018-12-04T00:03:09.206Z,89.23
2018-12-04T00:05:36.656Z,89.89
2018-12-04T00:08:05.310Z,89.50
2018-12-04T00:10:33.657Z,90.00
2018-12-04T00:13:01.996Z,90.28
2018-12-04T00:15:29.304Z,90.11
2018-12-04T00:17:56.795Z,90.47
2018-12-04T00:20:24.255Z,90.49
2018-12-04T00:22:51.553Z,91.12
2018-12-04T00:25:18.847Z,90.45
2018-12-04T00:27:46.621Z,90.65
2018-12-04T00:30:13.907Z,90.02
2018-12-04T00:32:41.204Z,90.40
2018-12-04T00:35:08.539Z,89.93
2018-12-04T00:37:36.309Z,89.69
2018-12-04T00:40:04.677Z,89.95
2018-12-04T00:42:32.308Z,90.03
2018-12-04T00:44:59.613Z,90.18
2018-12-04T00:47:27.316Z,90.13
2018-12-04T00:49:55.378Z,89.99
2018-12-04T00:52:22.699Z,89.95
2018-12-04T00:54:49.984Z,89.50
2018-12-04T00:57:17.579Z,88.88
2018-12-04T00:59:44.850Z,88.49
2018-12-04T01:02:12.156Z,89.52
2018-12-04T01:04:56.432Z,88.80
2018-12-04T01:07:23.787Z,88.38
2018-12-04T01:09:51.196Z,88.49
2018-12-04T01:12:18.975Z,88.87
2018-12-04T01:14:46.403Z,88.57
2018-12-04T01:17:13.711Z,88.38
2018-12-04T01:19:41.046Z,87.90
2018-12-04T01:22:08.378Z,87.96
2018-12-04T01:24:35.668Z,87.70
2018-12-04T01:27:03.075Z,87.69
2018-12-04T01:29:30.357Z,87.34
2018-12-04T01:31:57.639Z,87.06
2018-12-04T01:34:24.974Z,86.98
2018-12-04T01:36:52.299Z,87.02
2018-12-04T01:39:19.604Z,86.51
2018-12-04T01:41:46.924Z,86.49
2018-12-04T01:44:14.215Z,86.46
2018-12-04T01:46:41.550Z,85.88
2018-12-04T01:49:08.875Z,85.61
2018-12-04T01:51:36.167Z,86.07
2018-12-04T01:54:03.643Z,86.00
2018-12-04T01:56:30.959Z,85.96
2018-12-04T01:58:58.511Z,85.72
2018-12-04T02:01:25.795Z,85.71
2018-12-04T02:03:53.091Z,85.46
2018-12-04T02:06:20.383Z,85.28
2018-12-04T02:08:47.667Z,84.97
2018-12-04T02:11:14.959Z,85.75
2018-12-04T02:13:42.254Z,85.67
2018-12-04T02:16:09.567Z,85.67
2018-12-04T02:18:36.840Z,85.04
2018-12-04T02:21:05.272Z,84.88
2018-12-04T02:23:32.839Z,84.24
2018-12-04T02:26:00.146Z,84.48
2018-12-04T02:28:33.193Z,84.25
2018-12-04T02:31:00.466Z,84.22
2018-12-04T02:33:27.755Z,84.32
2018-12-04T02:35:55.050Z,83.65
2018-12-04T02:38:22.331Z,83.90
2018-12-04T02:41:04.879Z,83.44
2018-12-04T02:43:33.188Z,84.24
2018-12-04T02:46:00.471Z,84.36
2018-12-04T02:48:27.790Z,84.36
2018-12-04T02:50:55.112Z,85.17
2018-12-04T02:53:23.543Z,85.26
2018-12-04T02:55:50.852Z,84.43
2018-12-04T02:58:18.191Z,84.68
2018-12-04T03:00:45.738Z,83.92
2018-12-04T03:03:14.098Z,83.33
2018-12-04T03:05:42.541Z,84.02
2018-12-04T03:08:09.837Z,83.69
2018-12-04T03:10:37.132Z,83.46
2018-12-04T03:13:04.423Z,83.63
2018-12-04T03:15:31.795Z,83.62
2018-12-04T03:17:59.108Z,83.96
2018-12-04T03:20:26.396Z,83.71
2018-12-04T03:22:53.723Z,83.17
2018-12-04T03:25:21.015Z,83.61
2018-12-04T03:27:48.414Z,83.53
2018-12-04T03:30:17.754Z,83.44
2018-12-04T03:32:46.256Z,83.54
2018-12-04T03:35:13.531Z,83.50
2018-12-04T03:37:40.810Z,84.13
2018-12-04T03:40:08.819Z,84.19
2018-12-04T03:42:36.124Z,84.59
2018-12-04T03:45:04.555Z,85.02
2018-12-04T03:47:31.863Z,84.84
2018-12-04T03:49:59.148Z,85.17
2018-12-04T03:52:26.699Z,85.92
2018-12-04T03:54:53.986Z,85.64
2018-12-04T03:57:21.376Z,86.22
2018-12-04T03:59:48.674Z,86.24
2018-12-04T04:02:15.994Z,86.30
2018-12-04T04:04:43.414Z,85.60
2018-12-04T04:07:10.824Z,85.63
2018-12-04T04:09:38.128Z,85.94
2018-12-04T04:12:07.436Z,85.40
2018-12-04T04:14:34.748Z,84.46
2018-12-04T04:17:02.038Z,83.80
2018-12-04T04:19:29.349Z,83.25
2018-12-04T04:21:56.631Z,83.24
2018-12-04T04:24:24.407Z,83.05
2018-12-04T04:26:51.901Z,83.28
2018-12-04T04:29:19.292Z,83.35
2018-12-04T04:31:46.562Z,82.73
2018-12-04T04:34:13.901Z,82.40
2018-12-04T04:36:41.182Z,81.96
2018-12-04T04:39:08.739Z,81.86
2018-12-04T04:41:36.125Z,81.34
2018-12-04T04:44:03.566Z,80.77
2018-12-04T04:46:30.863Z,80.52
2018-12-04T04:48:58.336Z,79.92
2018-12-04T04:51:25.627Z,79.09
2018-12-04T04:53:52.919Z,78.52
2018-12-04T04:56:20.207Z,77.43
2018-12-04T04:58:47.608Z,77.41
2018-12-04T05:01:14.898Z,76.59
2018-12-04T05:03:42.193Z,76.19
2018-12-04T05:06:09.490Z,75.31
2018-12-04T05:08:36.774Z,76.36
2018-12-04T05:11:04.051Z,75.83
2018-12-04T05:13:31.319Z,75.45
2018-12-04T05:15:58.587Z,75.35
2018-12-04T05:18:25.879Z,75.40
2018-12-04T05:20:53.258Z,75.16
2018-12-04T05:23:20.568Z,75.46
2018-12-04T05:25:47.826Z,75.59
2018-12-04T05:28:15.082Z,76.05
2018-12-04T05:30:42.334Z,76.39
2018-12-04T05:33:09.594Z,76.87
2018-12-04T05:35:36.858Z,77.07
2018-12-04T05:38:04.154Z,76.94
2018-12-04T05:40:31.406Z,77.44
2018-12-04T05:42:58.662Z,76.76
2018-12-04T05:45:25.914Z,77.23
2018-12-04T05:47:53.366Z,77.85
2018-12-04T05:50:20.626Z,77.70
2018-12-04T05:53:51.450Z,77.47
2018-12-04T05:56:19.333Z,77.62
2018-12-04T05:58:46.788Z,77.38
2018-12-04T06:01:14.078Z,77.06
2018-12-04T06:03:41.678Z,76.96
2018-12-04T06:06:10.027Z,76.87
2018-12-04T06:08:37.385Z,76.95
2018-12-04T06:11:04.806Z,76.79
2018-12-04T06:13:32.236Z,76.75
2018-12-04T06:15:59.699Z,76.57
2018-12-04T06:18:26.975Z,77.01
2018-12-04T06:20:54.275Z,76.81
2018-12-04T06:23:21.662Z,76.98
2018-12-04T06:25:48.957Z,76.91
2018-12-04T06:28:16.251Z,76.79
2018-12-04T06:30:43.562Z,76.78
2018-12-04T06:33:10.848Z,77.01
2018-12-04T06:35:38.139Z,77.05
2018-12-04T06:38:05.487Z,77.93
2018-12-04T06:40:32.819Z,78.23
2018-12-04T06:43:00.141Z,78.58
2018-12-04T06:45:27.480Z,78.58
2018-12-04T06:47:54.942Z,79.10
2018-12-04T06:50:22.354Z,78.82
2018-12-04T06:52:49.676Z,78.79
2018-12-04T06:55:16.978Z,78.72
2018-12-04T06:57:54.927Z,78.51
2018-12-04T07:00:22.407Z,78.55
2018-12-04T07:02:49.698Z,78.28
2018-12-04T07:05:17.230Z,78.30
2018-12-04T07:07:44.700Z,78.71
2018-12-04T07:10:11.991Z,78.48
2018-12-04T07:12:39.310Z,78.95
2018-12-04T07:15:06.783Z,79.27
2018-12-04T07:17:35.211Z,80.01
2018-12-04T07:20:04.663Z,78.95
2018-12-04T07:22:31.938Z,79.74
2018-12-04T07:24:59.248Z,79.82
2018-12-04T07:27:26.554Z,80.09
2018-12-04T07:29:53.815Z,80.49
2018-12-04T07:32:21.089Z,80.05
2018-12-04T07:34:48.367Z,80.08
2018-12-04T07:37:15.743Z,80.07
2018-12-04T07:39:43.038Z,80.18
2018-12-04T07:42:10.334Z,79.10
2018-12-04T07:44:37.675Z,79.69
2018-12-04T07:47:04.992Z,79.60
2018-12-04T07:49:32.279Z,78.52
2018-12-04T07:51:59.595Z,78.61
2018-12-04T07:54:26.887Z,78.92
2018-12-04T07:56:54.207Z,79.64
2018-12-04T07:59:21.515Z,79.41
2018-12-04T08:01:48.835Z,79.06
2018-12-04T08:04:16.118Z,79.03
2018-12-04T08:06:43.447Z,78.68
2018-12-04T08:09:10.759Z,78.53
2018-12-04T08:11:40.188Z,78.58
2018-12-04T08:14:08.458Z,78.27
2018-12-04T08:16:35.815Z,77.48
2018-12-04T08:19:03.251Z,77.80
2018-12-04T08:21:30.818Z,77.41
2018-12-04T08:23:58.099Z,77.10
2018-12-04T08:26:25.419Z,77.55
2018-12-04T08:28:52.715Z,77.54
2018-12-04T08:31:20.059Z,77.28
2018-12-04T08:33:47.343Z,77.12
2018-12-04T08:36:14.652Z,76.80
2018-12-04T08:45:37.142Z,74.56
2018-12-04T08:48:04.490Z,74.02
2018-12-04T08:50:31.767Z,73.22
2018-12-04T08:52:59.166Z,72.29
2018-12-04T08:55:26.486Z,72.90
2018-12-04T08:57:53.896Z,72.43
2018-12-04T09:00:21.223Z,72.45
2018-12-04T09:02:48.536Z,70.93
2018-12-04T09:05:15.883Z,70.48
2018-12-04T09:07:43.350Z,69.95
2018-12-04T09:10:10.766Z,70.26
2018-12-04T09:12:38.031Z,70.08
2018-12-04T09:15:06.098Z,69.44
2018-12-04T09:17:33.715Z,68.49
2018-12-04T09:20:01.216Z,67.62
2018-12-04T09:22:28.604Z,66.23
2018-12-04T09:24:55.997Z,66.87
2018-12-04T09:27:23.464Z,66.27
2018-12-04T09:29:51.008Z,66.34
2018-12-04T09:32:18.373Z,66.81
2018-12-04T09:34:45.654Z,66.19
2018-12-04T09:37:13.046Z,66.16
2018-12-04T09:39:40.546Z,66.18
2018-12-04T09:42:08.660Z,66.06
2018-12-04T09:44:36.110Z,65.65
2018-12-04T09:47:03.547Z,65.82
2018-12-04T09:49:30.936Z,65.12
2018-12-04T09:51:58.314Z,64.93
2018-12-04T09:54:25.713Z,64.01
2018-12-04T09:56:53.015Z,64.54
2018-12-04T09:59:20.312Z,65.74
2018-12-04T10:01:47.622Z,65.96
2018-12-04T10:04:14.963Z,66.65
2018-12-04T10:06:42.287Z,66.21
2018-12-04T10:09:09.398Z,66.08
2018-12-04T10:11:36.785Z,66.02
2018-12-04T10:14:04.207Z,67.09
2018-12-04T10:16:31.522Z,67.95
2018-12-04T10:18:59.167Z,68.86
2018-12-04T10:21:26.470Z,69.39
2018-12-04T10:23:53.808Z,69.55
2018-12-04T10:26:21.118Z,69.08
2018-12-04T10:28:48.411Z,70.23
2018-12-04T10:31:15.730Z,71.40
2018-12-04T10:33:43.027Z,71.98
2018-12-04T10:36:10.339Z,72.71
2018-12-04T10:38:37.627Z,71.92
2018-12-04T10:41:04.943Z,71.82
2018-12-04T10:43:32.234Z,71.48
2018-12-04T10:45:59.555Z,70.43
2018-12-04T10:48:27.007Z,69.97
2018-12-04T10:50:54.279Z,69.19
2018-12-04T10:53:21.567Z,68.92
2018-12-04T10:55:48.997Z,67.84
2018-12-04T10:58:16.361Z,67.73
2018-12-04T11:00:49.606Z,67.82
2018-12-04T11:03:18.918Z,67.90
2018-12-04T11:05:46.318Z,68.48
2018-12-04T11:08:13.598Z,68.17
2018-12-04T11:10:40.874Z,68.59
2018-12-04T11:13:08.162Z,67.76
2018-12-04T11:15:35.461Z,67.73
2018-12-04T11:18:02.926Z,66.71
2018-12-04T11:20:30.365Z,66.95
2018-12-04T11:22:57.652Z,66.45
2018-12-04T11:25:24.902Z,66.52
2018-12-04T11:27:52.518Z,66.33
2018-12-04T11:30:19.797Z,65.82
2018-12-04T11:32:47.070Z,64.19
2018-12-04T11:35:14.362Z,63.99
2018-12-04T11:37:41.803Z,63.35
2018-12-04T11:40:09.091Z,63.32
2018-12-04T11:42:36.487Z,63.01
2018-12-04T11:45:04.214Z,62.56
2018-12-04T11:47:31.750Z,62.25
2018-12-04T11:49:59.133Z,62.16
2018-12-04T11:52:26.385Z,62.63
2018-12-04T11:54:53.644Z,62.87
2018-12-04T11:57:21.094Z,62.74
2018-12-04T11:59:48.490Z,62.01
2018-12-04T12:02:16.050Z,61.57
2018-12-04T12:04:43.407Z,61.90
2018-12-04T12:07:12.703Z,61.51
2018-12-04T12:09:39.999Z,61.06
2018-12-04T12:12:07.335Z,59.79
2018-12-04T12:14:34.748Z,58.96
2018-12-04T12:17:02.055Z,57.85
2018-12-04T12:19:29.498Z,57.87
2018-12-04T12:21:56.794Z,56.79
2018-12-04T12:24:24.074Z,56.37
2018-12-04T12:26:51.707Z,56.33
2018-12-04T12:29:19.090Z,57.14
2018-12-04T12:31:46.390Z,60.47
2018-12-04T12:34:13.662Z,66.97
2018-12-04T12:36:40.959Z,69.00
2018-12-04T12:39:08.227Z,68.80
2018-12-04T12:41:38.011Z,67.12
2018-12-04T12:44:05.459Z,66.54
2018-12-04T12:46:32.762Z,66.28
2018-12-04T12:49:00.212Z,63.79
2018-12-04T12:51:27.623Z,60.33
2018-12-04T12:53:54.924Z,58.79
2018-12-04T12:56:22.233Z,58.26
2018-12-04T12:58:49.946Z,59.44
2018-12-04T13:01:18.452Z,59.53
2018-12-04T13:03:47.070Z,59.24
2018-12-04T13:06:14.436Z,58.70
2018-12-04T13:08:42.319Z,59.86
2018-12-04T13:11:09.733Z,59.62
2018-12-04T13:13:37.441Z,59.36
2018-12-04T13:16:05.014Z,59.26
2018-12-04T13:18:32.335Z,57.78
2018-12-04T13:20:59.691Z,58.11
2018-12-04T13:23:27.032Z,57.54
2018-12-04T13:28:47.388Z,56.35
2018-12-04T13:31:14.851Z,57.33
2018-12-04T13:33:42.178Z,57.83
2018-12-04T13:36:09.578Z,56.57
2018-12-04T13:38:36.906Z,56.28
2018-12-04T13:41:04.190Z,56.98
2018-12-04T13:43:31.504Z,57.07
2018-12-04T13:45:58.927Z,57.26
2018-12-04T13:48:27.263Z,57.42
2018-12-04T13:50:54.617Z,57.38
2018-12-04T13:53:21.927Z,57.68
2018-12-04T13:55:49.219Z,58.35
2018-12-04T13:58:16.553Z,58.32
2018-12-04T14:00:43.948Z,58.39
2018-12-04T14:03:11.250Z,59.13
2018-12-04T14:05:38.546Z,59.15
2018-12-04T14:08:05.997Z,59.12
2018-12-04T14:10:33.303Z,58.83
2018-12-04T14:13:00.639Z,58.35
2018-12-04T14:15:28.034Z,58.38
2018-12-04T14:17:56.002Z,59.14
2018-12-04T14:20:24.567Z,59.41
2018-12-04T14:22:51.897Z,59.39
2018-12-04T14:25:19.220Z,59.63
2018-12-04T14:27:49.153Z,60.25
2018-12-04T14:30:15.964Z,60.52
2018-12-04T14:32:43.307Z,63.54
2018-12-04T14:35:10.673Z,60.86
2018-12-04T14:37:39.095Z,61.38
2018-12-04T14:40:07.611Z,62.23
2018-12-04T14:42:35.024Z,62.88
2018-12-04T14:45:02.339Z,63.18
2018-12-04T14:47:29.896Z,63.22
2018-12-04T14:49:57.209Z,63.62
2018-12-04T14:52:24.645Z,63.71
2018-12-04T14:54:52.047Z,63.91
2018-12-04T14:57:20.055Z,63.89
2018-12-04T14:59:47.416Z,63.94
2018-12-04T15:02:14.751Z,64.38
2018-12-04T15:04:42.169Z,64.36
2018-12-04T15:07:09.572Z,64.30
2018-12-04T15:09:36.971Z,63.40
2018-12-04T15:12:04.386Z,63.38
2018-12-04T15:14:31.685Z,63.87
2018-12-04T15:16:59.097Z,64.56
2018-12-04T15:19:26.473Z,64.98
2018-12-04T15:21:53.870Z,65.85
2018-12-04T15:24:21.274Z,65.89
2018-12-04T15:26:48.764Z,66.50
2018-12-04T15:29:16.195Z,66.73
2018-12-04T15:31:43.573Z,66.51
2018-12-04T15:34:10.954Z,67.35
2018-12-04T15:36:38.246Z,68.04
2018-12-04T15:39:07.700Z,68.01
2018-12-04T15:41:37.252Z,68.12
2018-12-04T15:44:04.804Z,68.10
2018-12-04T15:46:32.191Z,68.39
2018-12-04T15:48:59.629Z,68.36
2018-12-04T15:51:27.050Z,68.43
2018-12-04T15:53:54.487Z,68.88
2018-12-04T15:56:21.839Z,68.70
2018-12-04T15:58:49.284Z,68.55
2018-12-04T16:01:16.596Z,68.45
2018-12-04T16:03:43.895Z,68.84
2018-12-04T16:06:11.204Z,68.23
2018-12-04T16:08:38.495Z,68.06
2018-12-04T16:11:05.805Z,68.50
2018-12-04T16:13:33.103Z,68.62
2018-12-04T16:16:01.679Z,68.99
2018-12-04T16:18:28.996Z,68.92
2018-12-04T16:20:56.335Z,69.67
2018-12-04T16:23:23.623Z,69.77
2018-12-04T16:25:50.939Z,69.52
2018-12-04T16:28:18.280Z,69.99
2018-12-04T16:30:45.591Z,70.07
2018-12-04T16:33:13.907Z,69.97
2018-12-04T16:35:41.244Z,71.17
2018-12-04T16:38:08.546Z,71.58
2018-12-04T16:40:35.875Z,71.62
2018-12-04T16:43:03.223Z,71.52
2018-12-04T16:45:30.581Z,71.95
2018-12-04T16:47:57.975Z,72.28
2018-12-04T16:50:25.611Z,72.64
2018-12-04T16:52:52.940Z,73.26
2018-12-04T16:55:20.266Z,73.40
2018-12-04T16:57:47.595Z,73.24
2018-12-04T17:00:16.181Z,73.31
2018-12-04T17:02:44.543Z,74.03
2018-12-04T17:05:12.002Z,74.11
2018-12-04T17:07:39.331Z,74.54
2018-12-04T17:10:07.693Z,72.85
2018-12-04T17:12:36.071Z,73.02
2018-12-04T17:15:04.138Z,72.85
2018-12-04T17:17:31.457Z,73.44
2018-12-04T17:19:58.743Z,74.40
2018-12-04T17:22:26.197Z,73.85
2018-12-04T17:24:53.511Z,74.21
2018-12-04T17:27:20.937Z,74.58
2018-12-04T17:29:48.227Z,74.50
2018-12-04T17:32:15.574Z,74.65
2018-12-04T17:34:42.963Z,74.72
2018-12-04T17:37:10.584Z,74.95
2018-12-04T17:39:37.987Z,75.40
2018-12-04T17:42:05.519Z,75.89
2018-12-04T17:44:40.055Z,75.67
2018-12-04T17:47:02.212Z,76.45
2018-12-04T17:49:29.631Z,76.36
2018-12-04T17:51:56.987Z,76.73
2018-12-04T17:54:24.291Z,76.77
2018-12-04T17:56:51.726Z,76.72
2018-12-04T17:59:19.982Z,77.28
2018-12-04T18:01:47.303Z,76.78
2018-12-04T18:04:14.615Z,77.28
2018-12-04T18:06:43.939Z,76.94
2018-12-04T18:09:11.251Z,77.67
2018-12-04T18:11:40.604Z,77.33
2018-12-04T18:14:07.902Z,77.51
2018-12-04T18:16:35.235Z,77.35
2018-12-04T18:19:04.064Z,77.40
2018-12-04T18:21:31.398Z,77.12
2018-12-04T18:23:58.723Z,77.16
2018-12-04T18:26:26.179Z,77.56
2018-12-04T18:28:53.619Z,77.69
2018-12-04T18:31:20.934Z,77.60
2018-12-04T18:33:48.243Z,77.84
2018-12-04T18:36:15.749Z,78.65
2018-12-04T18:38:43.459Z,77.84
2018-12-04T18:41:10.788Z,78.58
2018-12-04T18:43:38.215Z,79.01
2018-12-04T18:46:05.550Z,79.05
2018-12-04T18:48:32.843Z,78.74
2018-12-04T18:51:00.187Z,78.71
2018-12-04T18:53:27.495Z,78.21
2018-12-04T18:55:54.827Z,78.17
2018-12-04T18:58:22.122Z,78.62
2018-12-04T19:00:49.439Z,78.04
2018-12-04T19:03:17.398Z,77.92
2018-12-04T19:05:44.714Z,77.27
2018-12-04T19:08:12.038Z,77.52
2018-12-04T19:10:39.347Z,77.67
2018-12-04T19:13:06.727Z,77.26
2018-12-04T19:17:03.596Z,77.70
2018-12-04T19:19:32.951Z,78.21
2018-12-04T19:22:01.380Z,78.04
2018-12-04T19:24:29.812Z,78.33
2018-12-04T19:26:57.140Z,78.15
2018-12-04T19:29:24.455Z,78.00
2018-12-04T19:31:51.759Z,77.74
2018-12-04T19:34:19.220Z,77.97
2018-12-04T19:36:46.519Z,77.22
2018-12-04T19:39:13.857Z,77.19
2018-12-04T19:41:41.163Z,76.97
2018-12-04T19:44:08.459Z,76.71
2018-12-04T19:46:36.940Z,76.99
2018-12-04T19:49:04.385Z,77.13
2018-12-04T19:51:31.914Z,76.47
2018-12-04T19:53:59.232Z,76.56
2018-12-04T19:56:26.519Z,76.76
2018-12-04T19:58:53.893Z,76.71
2018-12-04T20:01:21.200Z,76.84
2018-12-04T20:03:48.526Z,77.18
2018-12-04T20:06:16.149Z,76.83
2018-12-04T20:08:56.803Z,77.35
2018-12-04T20:11:25.395Z,76.91
2018-12-04T20:13:56.343Z,76.61
2018-12-04T20:16:24.711Z,77.21
2018-12-04T20:18:52.899Z,77.58
2018-12-04T20:21:21.378Z,77.20
2018-12-04T20:24:06.688Z,77.00
2018-12-04T20:26:34.435Z,77.21
2018-12-04T20:29:01.792Z,78.02
2018-12-04T20:31:29.211Z,78.97
2018-12-04T20:33:56.571Z,78.46
2018-12-04T20:36:23.875Z,78.85
2018-12-04T20:38:51.657Z,79.58
2018-12-04T20:41:18.983Z,79.21
2018-12-04T20:43:46.658Z,79.01
2018-12-04T20:46:14.024Z,79.20
2018-12-04T20:48:41.499Z,79.86
2018-12-04T20:51:08.823Z,79.63
2018-12-04T20:53:36.165Z,80.28
2018-12-04T20:56:03.774Z,80.19
2018-12-04T20:58:48.023Z,80.27
2018-12-04T21:01:15.788Z,79.80
2018-12-04T21:03:43.095Z,80.42
2018-12-04T21:06:10.458Z,80.38
2018-12-04T21:08:37.831Z,80.24
2018-12-04T21:11:05.151Z,80.33
2018-12-04T21:13:32.481Z,80.23
2018-12-04T21:16:00.156Z,79.64
2018-12-04T21:18:27.527Z,79.73
2018-12-04T21:20:54.992Z,79.51
2018-12-04T21:23:22.606Z,79.95
2018-12-04T21:25:50.031Z,79.62
2018-12-04T21:28:23.404Z,78.93
2018-12-04T21:30:56.843Z,78.57
2018-12-04T21:33:29.946Z,79.12
2018-12-04T21:36:03.224Z,78.65
2018-12-04T21:38:36.257Z,78.54
2018-12-04T21:42:10.538Z,78.85
2018-12-04T21:44:43.711Z,79.10
2018-12-04T21:47:17.474Z,78.55
2018-12-04T21:49:44.815Z,78.63
2018-12-04T21:52:12.117Z,79.18
2018-12-04T21:54:39.597Z,79.73
2018-12-04T21:57:06.904Z,79.48
2018-12-04T21:59:34.202Z,80.01
2018-12-04T22:02:01.660Z,80.25
2018-12-04T22:04:28.959Z,80.59
2018-12-04T22:06:56.303Z,81.02
2018-12-04T22:09:23.829Z,81.15
2018-12-04T22:11:51.139Z,81.39
2018-12-04T22:14:19.362Z,81.48
2018-12-04T22:16:46.855Z,81.04
2018-12-04T22:19:14.199Z,81.37
2018-12-04T22:21:41.497Z,82.59
2018-12-04T22:24:08.796Z,82.78
2018-12-04T22:26:36.074Z,82.54
2018-12-04T22:29:03.867Z,82.48
2018-12-04T22:31:31.270Z,82.44
2018-12-04T22:33:58.562Z,82.10
2018-12-04T22:36:25.826Z,83.35
2018-12-04T22:38:53.123Z,83.11
2018-12-04T22:41:20.398Z,83.14
2018-12-04T22:43:47.711Z,83.65
2018-12-04T22:46:15.160Z,83.16
2018-12-04T22:48:42.566Z,83.17
2018-12-04T22:51:09.883Z,83.43
2018-12-04T22:53:37.330Z,83.59
2018-12-04T22:56:04.663Z,83.81
2018-12-04T22:58:31.971Z,83.77
2018-12-04T23:00:59.402Z,83.65
2018-12-04T23:03:28.727Z,83.66
2018-12-04T23:05:56.002Z,83.76
2018-12-04T23:08:23.619Z,83.42
2018-12-04T23:10:50.919Z,83.87
2018-12-04T23:13:19.083Z,83.25
2018-12-04T23:15:46.527Z,84.37
2018-12-04T23:18:13.847Z,83.58
2018-12-04T23:20:41.189Z,83.43
2018-12-04T23:23:10.060Z,83.94
2018-12-04T23:25:37.383Z,83.53
2018-12-04T23:28:04.690Z,83.69
2018-12-04T23:30:32.002Z,84.04
2018-12-04T23:33:00.390Z,83.91
2018-12-04T23:35:27.731Z,84.20
2018-12-04T23:37:55.015Z,84.75
2018-12-04T23:40:39.256Z,84.64
2018-12-04T23:43:06.566Z,85.01
2018-12-04T23:45:34.443Z,83.52
2018-12-04T23:48:01.757Z,84.15
2018-12-04T23:50:30.155Z,84.21
2018-12-04T23:52:57.507Z,84.30
2018-12-04T23:55:24.812Z,83.86
2018-12-04T23:57:52.878Z,83.61
